ROMMA est une association bénévole à but non lucratif. Votre soutien est indispensable : ADHERER à ROMMA ou FAIRE un DON

Taninges - (74, Haute-Savoie)

Vallée du Giffre (635 m)   Longitude: 06° 35' 38" E   Latitude: 46° 06' 21" N Station romma n°98
 

Détail journalier du     <<     >>

Température Precipitation Humidité Pression Vent Dir Rafale Dir. rafale Ensol.
Heure (°C) (mm) (%) (hPa) (km/h) (km/h) (min)
01:00 16.309210171S6SSE0
02:00 15.309410171SSO5SSO0
03:00 14.809510161SSO3SSO0
04:00 14.3096101603SSO0
05:00 13.409610161SSO5SSO0
06:00 13.009610161SE5SE0
07:00 13.309710161SSE5SSE0
08:00 14.1097101605SSE20
09:00 16.609710161E5S60
10:00 19.908310162SE6SSE60
11:00 23.606710152SSE6S60
12:00 25.606110143OSO10OSO60
13:00 26.805510147SO18SO60
14:00 27.705310139SO19SO60
15:00 28.604510128O18ONO60
16:00 28.804510118O18O60
17:00 28.804310118O19OSO60
18:00 28.604410116O13ONO60
19:00 25.105810126SE18SE60
20:00 22.706710125ENE11NE15
21:00 19.807910131SSE5E0
22:00 17.5087101305SE0
23:00 16.508910131S5S0
minuit 15.809210131S5SO0

Graphique du 31-08-2019

 

Serveur OMMA